createdAt,value
2022-07-29T00:01:19.908Z,72.90
2022-07-29T00:06:23.300Z,72.80
2022-07-29T00:11:26.759Z,73.80
2022-07-29T00:16:31.537Z,73.40
2022-07-29T00:21:34.849Z,73.00
2022-07-29T00:26:38.022Z,73.80
2022-07-29T00:31:42.783Z,73.70
2022-07-29T00:36:46.199Z,76.90
2022-07-29T00:41:49.740Z,78.50
2022-07-29T00:46:54.374Z,79.50
2022-07-29T00:52:00.035Z,78.40
2022-07-29T00:57:03.626Z,77.40
2022-07-29T01:02:11.540Z,76.80
2022-07-29T01:07:14.897Z,77.60
2022-07-29T01:12:20.461Z,77.70
2022-07-29T01:17:28.532Z,78.10
2022-07-29T01:22:38.290Z,78.70
2022-07-29T01:27:47.220Z,79.00
2022-07-29T01:32:53.781Z,79.10
2022-07-29T01:38:00.263Z,78.50
2022-07-29T01:43:13.060Z,79.20
2022-07-29T01:48:19.223Z,80.30
2022-07-29T01:53:26.961Z,81.80
2022-07-29T01:58:37.029Z,81.70
2022-07-29T02:03:41.722Z,82.00
2022-07-29T02:08:45.985Z,84.10
2022-07-29T02:13:50.133Z,84.50
2022-07-29T02:18:55.800Z,84.10
2022-07-29T02:24:00.168Z,84.10
2022-07-29T02:29:03.599Z,84.00
2022-07-29T02:34:09.655Z,83.50
2022-07-29T02:39:17.137Z,82.90
2022-07-29T02:44:23.656Z,84.00
2022-07-29T02:49:34.607Z,83.80
2022-07-29T02:54:41.509Z,84.40
2022-07-29T02:59:44.881Z,88.90
2022-07-29T03:04:50.261Z,89.00
2022-07-29T03:09:53.620Z,88.50
2022-07-29T03:14:57.004Z,88.00
2022-07-29T03:20:02.058Z,90.80
2022-07-29T03:25:11.044Z,90.70
2022-07-29T03:30:18.171Z,90.10
2022-07-29T03:35:27.711Z,88.90
2022-07-29T03:40:34.269Z,88.20
2022-07-29T03:45:37.709Z,87.50
2022-07-29T03:50:42.287Z,88.90
2022-07-29T03:55:47.293Z,90.10
2022-07-29T04:00:50.825Z,90.40
2022-07-29T04:06:03.095Z,90.40
2022-07-29T04:11:06.607Z,90.60
2022-07-29T04:16:09.806Z,90.30
2022-07-29T04:21:14.579Z,90.60
2022-07-29T04:26:18.608Z,90.80
2022-07-29T04:31:25.722Z,90.60
2022-07-29T04:36:30.600Z,90.70
2022-07-29T04:41:33.882Z,90.90
2022-07-29T04:46:38.183Z,91.20
2022-07-29T04:51:43.365Z,91.10
2022-07-29T04:56:47.448Z,91.00
2022-07-29T05:01:52.366Z,90.70
2022-07-29T05:06:57.473Z,90.50
2022-07-29T05:12:03.205Z,90.60
2022-07-29T05:17:06.486Z,90.40
2022-07-29T05:22:11.450Z,90.30
2022-07-29T05:27:15.015Z,90.40
2022-07-29T05:32:19.563Z,90.10
2022-07-29T05:37:24.937Z,88.80
2022-07-29T05:42:28.304Z,88.00
2022-07-29T05:47:31.544Z,86.90
2022-07-29T05:52:36.762Z,86.70
2022-07-29T05:57:40.103Z,85.70
2022-07-29T06:02:43.511Z,85.50
2022-07-29T06:07:50.962Z,86.00
2022-07-29T06:12:57.847Z,85.60
2022-07-29T06:18:02.395Z,85.10
2022-07-29T06:23:07.628Z,83.40
2022-07-29T06:28:10.847Z,82.80
2022-07-29T06:33:18.908Z,84.10
2022-07-29T06:38:31.161Z,83.40
2022-07-29T06:43:45.592Z,82.60
2022-07-29T06:48:54.274Z,80.60
2022-07-29T06:54:03.385Z,80.50
2022-07-29T06:59:16.617Z,79.30
2022-07-29T07:04:20.465Z,79.00
2022-07-29T07:09:25.408Z,75.80
2022-07-29T07:14:46.009Z,77.90
2022-07-29T07:19:49.279Z,74.40
2022-07-29T07:24:53.815Z,72.20
2022-07-29T07:29:56.976Z,70.30
2022-07-29T07:35:00.656Z,67.70
2022-07-29T07:40:06.049Z,69.40
2022-07-29T07:45:13.865Z,66.20
2022-07-29T07:50:19.773Z,64.40
2022-07-29T07:55:24.987Z,64.50
2022-07-29T08:00:28.293Z,64.00
2022-07-29T08:05:32.039Z,63.10
2022-07-29T08:17:42.994Z,60.80
2022-07-29T08:22:46.492Z,59.00
2022-07-29T08:27:50.265Z,58.90
2022-07-29T08:32:55.855Z,59.00
2022-07-29T08:37:59.615Z,59.10
2022-07-29T08:43:09.079Z,58.90
2022-07-29T08:48:14.062Z,58.60
2022-07-29T08:53:18.025Z,58.30
2022-07-29T08:58:23.247Z,61.00
2022-07-29T09:03:32.600Z,61.10
2022-07-29T09:09:00.075Z,61.50
2022-07-29T09:14:03.719Z,57.00
2022-07-29T09:19:09.326Z,59.40
2022-07-29T09:24:15.460Z,55.50
2022-07-29T09:29:19.474Z,59.40
2022-07-29T09:34:31.414Z,55.80
2022-07-29T09:39:35.460Z,55.00
2022-07-29T09:44:45.938Z,56.50
2022-07-29T09:49:58.981Z,53.10
2022-07-29T09:55:09.109Z,55.00
2022-07-29T10:00:14.225Z,54.20
2022-07-29T10:05:23.796Z,56.10
2022-07-29T10:10:52.422Z,55.20
2022-07-29T10:15:56.722Z,53.60
2022-07-29T10:21:02.217Z,56.40
2022-07-29T10:26:05.706Z,55.20
2022-07-29T10:31:09.217Z,51.00
2022-07-29T10:36:22.496Z,51.20
2022-07-29T10:42:05.662Z,51.70
2022-07-29T10:47:08.974Z,49.40
2022-07-29T10:52:15.459Z,53.40
2022-07-29T10:57:25.968Z,51.80
2022-07-29T11:02:49.995Z,52.30
2022-07-29T11:08:28.873Z,49.00
2022-07-29T11:13:52.608Z,48.20
2022-07-29T11:19:30.028Z,49.50
2022-07-29T11:24:36.929Z,48.60
2022-07-29T11:29:43.113Z,47.90
2022-07-29T11:34:46.697Z,51.50
2022-07-29T11:40:20.203Z,50.50
2022-07-29T11:45:41.314Z,47.80
2022-07-29T11:50:48.423Z,48.50
2022-07-29T11:55:58.143Z,50.90
2022-07-29T12:01:04.132Z,49.90
2022-07-29T12:06:15.069Z,50.10
2022-07-29T12:11:21.644Z,47.30
2022-07-29T12:16:29.629Z,47.20
2022-07-29T12:21:52.375Z,47.30
2022-07-29T12:27:02.690Z,45.80
2022-07-29T12:32:14.986Z,46.20
2022-07-29T12:37:35.750Z,47.80
2022-07-29T12:43:01.984Z,46.20
2022-07-29T12:48:06.451Z,44.30
2022-07-29T12:53:14.459Z,46.60
2022-07-29T12:58:33.270Z,46.30
2022-07-29T13:03:56.812Z,48.40
2022-07-29T13:09:11.529Z,48.60
2022-07-29T13:14:17.246Z,46.70
2022-07-29T13:19:20.400Z,49.30
2022-07-29T13:24:23.678Z,51.00
2022-07-29T13:29:31.503Z,47.30
2022-07-29T13:34:35.069Z,45.20
2022-07-29T13:39:38.665Z,47.70
2022-07-29T13:44:44.171Z,43.70
2022-07-29T13:49:47.708Z,45.00
2022-07-29T13:54:51.283Z,46.00
2022-07-29T13:59:56.187Z,43.70
2022-07-29T14:05:02.831Z,43.40
2022-07-29T14:10:10.273Z,42.10
2022-07-29T14:15:14.748Z,41.80
2022-07-29T14:20:18.070Z,41.50
2022-07-29T14:25:21.701Z,41.80
2022-07-29T14:30:28.273Z,42.60
2022-07-29T14:35:32.214Z,39.50
2022-07-29T14:40:37.361Z,41.80
2022-07-29T14:45:41.884Z,42.80
2022-07-29T14:50:45.062Z,42.20
2022-07-29T14:55:48.304Z,43.20
2022-07-29T15:00:53.279Z,45.70
2022-07-29T15:05:56.719Z,93.70
2022-07-29T15:11:01.599Z,50.70
2022-07-29T15:16:08.131Z,51.20
2022-07-29T15:21:11.789Z,51.10
2022-07-29T15:26:15.593Z,52.80
2022-07-29T15:31:20.960Z,53.90
2022-07-29T15:36:49.402Z,52.70
2022-07-29T15:41:48.245Z,50.00
2022-07-29T15:47:06.270Z,53.30
2022-07-29T15:52:11.008Z,55.90
2022-07-29T15:57:15.686Z,54.10
2022-07-29T16:02:20.690Z,55.70
2022-07-29T16:07:23.994Z,56.50
2022-07-29T16:12:34.775Z,58.70
2022-07-29T16:17:39.896Z,59.40
2022-07-29T16:22:43.560Z,61.20
2022-07-29T16:27:47.302Z,62.20
2022-07-29T16:32:53.580Z,70.60
2022-07-29T16:37:57.224Z,72.00
2022-07-29T16:43:00.800Z,69.60
2022-07-29T16:48:06.209Z,72.30
2022-07-29T16:53:10.456Z,86.40
2022-07-29T16:58:13.936Z,92.40
2022-07-29T17:03:18.820Z,92.40
2022-07-29T17:08:22.070Z,92.90
2022-07-29T17:13:26.277Z,92.20
2022-07-29T17:18:41.617Z,92.90
2022-07-29T17:23:45.468Z,92.30
2022-07-29T17:28:49.174Z,92.00
2022-07-29T17:33:58.346Z,88.90
2022-07-29T17:39:12.999Z,82.20
2022-07-29T17:44:16.713Z,78.50
2022-07-29T17:49:22.634Z,78.70
2022-07-29T17:54:25.900Z,75.80
2022-07-29T17:59:30.103Z,77.80
2022-07-29T18:04:35.651Z,80.00
2022-07-29T18:09:38.899Z,80.80
2022-07-29T18:14:43.057Z,80.60
2022-07-29T18:19:48.859Z,80.30
2022-07-29T18:24:54.614Z,84.40
2022-07-29T18:29:59.625Z,84.70
2022-07-29T18:35:11.087Z,87.10
2022-07-29T18:40:14.458Z,86.10
2022-07-29T18:45:19.619Z,86.50
2022-07-29T18:50:29.428Z,85.70
2022-07-29T18:55:32.934Z,84.30
2022-07-29T19:00:36.193Z,84.30
2022-07-29T19:05:40.905Z,84.80
2022-07-29T19:10:44.550Z,84.50
2022-07-29T19:15:48.797Z,87.00
2022-07-29T19:20:53.952Z,88.40
2022-07-29T19:25:57.586Z,89.20
2022-07-29T19:31:01.125Z,90.10
2022-07-29T19:36:06.152Z,91.00
2022-07-29T19:41:09.703Z,91.80
2022-07-29T19:46:13.019Z,94.70
2022-07-29T19:51:17.781Z,96.80
2022-07-29T19:56:21.165Z,97.60
2022-07-29T20:01:26.130Z,97.30
2022-07-29T20:06:36.699Z,98.70
2022-07-29T20:11:42.579Z,99.50
2022-07-29T20:16:49.440Z,99.90
2022-07-29T20:22:00.784Z,99.90
2022-07-29T20:27:05.188Z,99.90
2022-07-29T20:32:20.946Z,99.90
2022-07-29T20:37:27.466Z,99.90
2022-07-29T20:43:11.899Z,99.90
2022-07-29T20:48:15.386Z,99.90
2022-07-29T20:53:20.929Z,99.90
2022-07-29T20:58:24.847Z,99.90
2022-07-29T21:03:30.320Z,99.90
2022-07-29T21:08:35.314Z,99.90
2022-07-29T21:13:40.064Z,99.90
2022-07-29T21:18:46.306Z,99.90
2022-07-29T21:23:51.127Z,99.90
2022-07-29T21:28:54.622Z,99.90
2022-07-29T21:33:58.157Z,99.90
2022-07-29T21:39:07.219Z,99.60
2022-07-29T21:44:10.726Z,99.90
2022-07-29T21:49:14.418Z,99.90
2022-07-29T21:54:19.571Z,99.90
2022-07-29T21:59:29.018Z,99.90
2022-07-29T22:04:34.047Z,99.90
2022-07-29T22:09:39.118Z,99.90
2022-07-29T22:14:42.844Z,99.90
2022-07-29T22:19:46.439Z,99.90
2022-07-29T22:24:51.496Z,99.90
2022-07-29T22:29:54.679Z,99.90
2022-07-29T22:35:00.393Z,99.90
2022-07-29T22:40:05.929Z,99.90
2022-07-29T22:45:10.377Z,99.90
2022-07-29T22:50:13.938Z,99.90
2022-07-29T22:55:18.733Z,99.90
2022-07-29T23:00:22.595Z,99.90
2022-07-29T23:05:26.308Z,99.80
2022-07-29T23:10:31.732Z,99.90
2022-07-29T23:15:35.341Z,99.90
2022-07-29T23:20:38.833Z,99.70
2022-07-29T23:25:43.938Z,99.00
2022-07-29T23:30:47.277Z,99.50
2022-07-29T23:35:50.902Z,99.10
2022-07-29T23:40:55.731Z,99.00
2022-07-29T23:45:59.722Z,99.40
2022-07-29T23:51:08.913Z,99.20
2022-07-29T23:56:14.041Z,99.10
